createdAt,value
2022-07-30T00:01:52.904Z,8.00
2022-07-30T00:04:20.472Z,8.80
2022-07-30T00:06:47.482Z,6.17
2022-07-30T00:09:15.175Z,11.97
2022-07-30T00:11:42.113Z,12.17
2022-07-30T00:14:09.215Z,11.30
2022-07-30T00:16:36.358Z,10.87
2022-07-30T00:19:03.392Z,11.60
2022-07-30T00:21:35.724Z,11.07
2022-07-30T00:24:04.534Z,11.77
2022-07-30T00:26:31.572Z,9.13
2022-07-30T00:28:58.495Z,14.53
2022-07-30T00:31:25.513Z,11.37
2022-07-30T00:33:52.332Z,9.90
2022-07-30T00:36:19.089Z,9.83
2022-07-30T00:38:46.151Z,9.90
2022-07-30T00:41:13.239Z,10.03
2022-07-30T00:43:43.471Z,13.03
2022-07-30T00:46:10.485Z,14.63
2022-07-30T00:48:37.216Z,13.03
2022-07-30T00:51:04.137Z,10.03
2022-07-30T00:53:30.923Z,18.40
2022-07-30T00:55:57.813Z,13.00
2022-07-30T00:58:25.706Z,13.20
2022-07-30T01:00:53.687Z,13.77
2022-07-30T01:03:20.472Z,11.47
2022-07-30T01:05:47.557Z,14.97
2022-07-30T01:08:14.564Z,14.57
2022-07-30T01:10:41.378Z,13.70
2022-07-30T01:13:08.566Z,16.43
2022-07-30T01:15:36.061Z,12.67
2022-07-30T01:18:05.761Z,13.97
2022-07-30T01:20:38.634Z,18.33
2022-07-30T01:23:15.410Z,15.87
2022-07-30T01:26:05.042Z,10.23
2022-07-30T01:28:41.636Z,18.47
2022-07-30T01:31:11.226Z,19.50
2022-07-30T01:33:41.183Z,17.87
2022-07-30T01:36:10.113Z,12.70
2022-07-30T01:38:37.466Z,16.17
2022-07-30T01:41:06.655Z,13.93
2022-07-30T01:43:35.929Z,16.20
2022-07-30T01:46:03.908Z,13.77
2022-07-30T01:48:35.419Z,17.33
2022-07-30T01:51:04.807Z,15.87
2022-07-30T01:53:37.224Z,12.50
2022-07-30T01:56:04.533Z,15.37
2022-07-30T01:58:36.321Z,12.80
2022-07-30T02:01:11.990Z,14.13
2022-07-30T02:03:39.692Z,16.50
2022-07-30T02:06:22.856Z,15.10
2022-07-30T02:08:55.680Z,16.17
2022-07-30T02:11:43.787Z,12.10
2022-07-30T02:14:22.994Z,16.17
2022-07-30T02:16:55.068Z,11.67
2022-07-30T02:19:25.345Z,14.93
2022-07-30T02:22:06.801Z,12.00
2022-07-30T02:24:37.892Z,15.53
2022-07-30T02:27:10.578Z,13.87
2022-07-30T02:29:41.109Z,15.80
2022-07-30T02:32:11.829Z,15.97
2022-07-30T02:34:41.075Z,12.63
2022-07-30T02:37:09.214Z,13.47
2022-07-30T02:39:38.565Z,13.20
2022-07-30T02:42:06.554Z,11.60
2022-07-30T02:44:34.198Z,17.50
2022-07-30T02:47:04.702Z,16.77
2022-07-30T02:49:52.713Z,20.70
2022-07-30T02:52:19.997Z,11.77
2022-07-30T02:54:48.410Z,14.17
2022-07-30T02:57:16.121Z,16.97
2022-07-30T02:59:44.260Z,14.20
2022-07-30T03:02:14.651Z,15.33
2022-07-30T03:04:42.682Z,18.27
2022-07-30T03:07:10.938Z,18.90
2022-07-30T03:09:52.453Z,12.23
2022-07-30T03:12:22.153Z,13.87
2022-07-30T03:14:48.997Z,15.77
2022-07-30T03:17:17.597Z,14.13
2022-07-30T03:19:45.769Z,18.43
2022-07-30T03:22:13.983Z,12.67
2022-07-30T03:24:43.667Z,16.07
2022-07-30T03:27:13.924Z,14.23
2022-07-30T03:29:44.357Z,11.73
2022-07-30T03:32:13.556Z,14.43
2022-07-30T03:34:42.167Z,15.73
2022-07-30T03:37:11.029Z,15.43
2022-07-30T03:39:39.252Z,13.33
2022-07-30T03:42:07.899Z,12.13
2022-07-30T03:44:35.439Z,15.13
2022-07-30T03:47:05.853Z,13.67
2022-07-30T03:49:38.479Z,14.97
2022-07-30T03:52:09.484Z,15.13
2022-07-30T03:54:39.815Z,18.63
2022-07-30T03:57:25.901Z,21.37
2022-07-30T03:59:52.834Z,17.53
2022-07-30T04:02:21.297Z,20.00
2022-07-30T04:05:14.104Z,14.77
2022-07-30T04:07:44.766Z,17.50
2022-07-30T04:10:14.245Z,12.43
2022-07-30T04:13:13.229Z,17.57
2022-07-30T04:16:36.841Z,19.37
2022-07-30T04:18:53.765Z,19.73
2022-07-30T04:21:22.366Z,15.67
2022-07-30T04:24:03.893Z,13.67
2022-07-30T04:26:35.065Z,13.17
2022-07-30T04:29:06.186Z,16.50
2022-07-30T04:31:39.880Z,14.10
2022-07-30T04:34:27.529Z,19.37
2022-07-30T04:36:54.736Z,14.50
2022-07-30T04:39:21.513Z,16.20
2022-07-30T04:41:49.735Z,13.63
2022-07-30T04:44:45.907Z,16.97
2022-07-30T04:47:35.795Z,18.00
2022-07-30T04:50:27.885Z,17.67
2022-07-30T04:52:56.557Z,17.63
2022-07-30T04:55:29.155Z,15.87
2022-07-30T04:57:57.448Z,21.57
2022-07-30T05:00:25.240Z,13.53
2022-07-30T05:02:52.780Z,17.43
2022-07-30T05:05:21.274Z,14.43
2022-07-30T05:07:48.795Z,10.87
2022-07-30T05:10:15.853Z,17.33
2022-07-30T05:12:43.703Z,15.97
2022-07-30T05:15:11.583Z,12.10
2022-07-30T05:17:41.434Z,22.47
2022-07-30T05:20:09.943Z,17.47
2022-07-30T05:22:56.481Z,16.17
2022-07-30T05:25:24.281Z,15.63
2022-07-30T05:27:53.952Z,14.67
2022-07-30T05:30:24.020Z,13.57
2022-07-30T05:32:55.989Z,14.10
2022-07-30T05:35:23.602Z,14.00
2022-07-30T05:37:50.365Z,12.63
2022-07-30T05:40:19.857Z,12.50
2022-07-30T05:43:08.679Z,16.80
2022-07-30T05:45:37.757Z,17.27
2022-07-30T05:48:05.065Z,10.37
2022-07-30T05:50:32.038Z,15.60
2022-07-30T05:52:58.802Z,14.17
2022-07-30T05:55:51.620Z,12.43
2022-07-30T05:58:38.357Z,14.33
2022-07-30T06:01:05.622Z,15.00
2022-07-30T06:03:33.922Z,12.27
2022-07-30T06:06:26.581Z,8.20
2022-07-30T06:08:53.723Z,10.83
2022-07-30T06:11:21.166Z,6.87
2022-07-30T06:13:48.446Z,8.33
2022-07-30T06:16:15.468Z,9.30
2022-07-30T06:18:42.348Z,8.10
2022-07-30T06:21:17.425Z,10.60
2022-07-30T06:24:04.344Z,9.43
2022-07-30T06:26:44.282Z,10.40
2022-07-30T06:29:11.842Z,9.43
2022-07-30T06:31:41.621Z,13.50
2022-07-30T06:34:11.051Z,10.07
2022-07-30T06:36:41.372Z,12.27
2022-07-30T06:39:56.431Z,14.73
2022-07-30T06:42:29.082Z,9.47
2022-07-30T06:45:15.679Z,10.83
2022-07-30T06:48:08.586Z,14.13
2022-07-30T06:50:36.970Z,10.70
2022-07-30T06:53:04.495Z,11.67
2022-07-30T06:55:51.153Z,16.37
2022-07-30T06:58:25.658Z,14.60
2022-07-30T07:01:18.828Z,11.50
2022-07-30T07:03:45.680Z,15.77
2022-07-30T07:06:12.360Z,15.17
2022-07-30T07:08:40.594Z,15.80
2022-07-30T07:11:09.575Z,13.93
2022-07-30T07:13:49.137Z,12.77
2022-07-30T07:16:50.236Z,11.13
2022-07-30T07:20:01.254Z,11.93
2022-07-30T07:22:35.086Z,14.60
2022-07-30T07:25:02.186Z,9.27
2022-07-30T07:27:34.464Z,10.03
2022-07-30T07:30:04.995Z,11.93
2022-07-30T07:32:36.089Z,17.10
2022-07-30T07:35:03.876Z,12.60
2022-07-30T07:37:30.996Z,10.93
2022-07-30T07:39:57.778Z,7.20
2022-07-30T07:42:26.089Z,10.97
2022-07-30T07:44:53.436Z,11.23
2022-07-30T07:47:20.283Z,14.10
2022-07-30T07:50:02.903Z,9.60
2022-07-30T07:52:31.010Z,4.90
2022-07-30T07:54:57.957Z,7.07
2022-07-30T08:00:23.779Z,10.47
2022-07-30T08:05:58.209Z,7.60
2022-07-30T08:09:08.291Z,6.00
2022-07-30T08:12:00.380Z,8.73
2022-07-30T08:14:56.192Z,5.77
2022-07-30T08:17:42.529Z,6.60
2022-07-30T08:20:23.025Z,14.53
2022-07-30T08:22:51.051Z,7.80
2022-07-30T08:25:22.132Z,5.40
2022-07-30T08:27:52.673Z,6.50
2022-07-30T08:30:20.944Z,4.67
2022-07-30T08:32:50.232Z,7.27
2022-07-30T08:35:20.528Z,8.20
2022-07-30T08:37:48.599Z,5.23
2022-07-30T08:40:19.559Z,6.37
2022-07-30T08:43:03.955Z,4.53
2022-07-30T08:45:38.674Z,4.83
2022-07-30T08:48:26.717Z,6.17
2022-07-30T08:50:55.953Z,3.60
2022-07-30T08:53:56.442Z,5.63
2022-07-30T08:56:24.959Z,5.97
2022-07-30T08:58:52.210Z,4.27
2022-07-30T09:01:19.692Z,4.50
2022-07-30T09:03:50.759Z,5.27
2022-07-30T09:06:18.462Z,3.63
2022-07-30T09:08:46.142Z,5.97
2022-07-30T09:11:13.402Z,3.07
2022-07-30T09:13:50.752Z,5.60
2022-07-30T09:16:27.982Z,4.00
2022-07-30T09:18:57.866Z,5.97
2022-07-30T09:21:26.772Z,5.07
2022-07-30T09:24:10.065Z,5.17
2022-07-30T09:27:07.799Z,2.70
2022-07-30T09:30:01.576Z,5.43
2022-07-30T09:32:58.843Z,1.90
2022-07-30T09:35:25.842Z,4.73
2022-07-30T09:38:14.212Z,4.30
2022-07-30T09:41:08.054Z,5.37
2022-07-30T09:43:52.126Z,2.33
2022-07-30T09:46:26.025Z,3.07
2022-07-30T09:48:53.532Z,3.37
2022-07-30T09:51:56.206Z,5.10
2022-07-30T09:54:51.383Z,4.57
2022-07-30T09:57:27.132Z,3.60
2022-07-30T10:00:29.996Z,5.17
2022-07-30T10:03:34.252Z,3.60
2022-07-30T10:06:41.962Z,3.37
2022-07-30T10:09:30.516Z,5.30
2022-07-30T10:12:04.144Z,5.00
2022-07-30T10:14:42.543Z,2.63
2022-07-30T10:17:14.725Z,5.07
2022-07-30T10:19:47.262Z,2.83
2022-07-30T10:22:40.465Z,1.73
2022-07-30T10:25:48.859Z,2.93
2022-07-30T10:28:39.593Z,3.73
2022-07-30T10:31:46.416Z,5.47
2022-07-30T10:33:57.821Z,2.87
2022-07-30T10:36:26.315Z,5.70
2022-07-30T10:38:54.437Z,1.63
2022-07-30T10:41:43.333Z,2.77
2022-07-30T10:45:17.623Z,6.10
2022-07-30T10:47:54.351Z,4.33
2022-07-30T10:50:32.416Z,6.07
2022-07-30T10:53:03.041Z,3.87
2022-07-30T10:55:37.615Z,1.87
2022-07-30T10:58:18.046Z,4.50
2022-07-30T11:00:57.317Z,5.53
2022-07-30T11:06:24.267Z,7.37
2022-07-30T11:08:57.222Z,4.10
2022-07-30T11:11:59.470Z,2.17
2022-07-30T11:14:13.175Z,4.63
2022-07-30T11:16:43.228Z,4.90
2022-07-30T11:19:55.316Z,4.13
2022-07-30T11:22:25.830Z,2.90
2022-07-30T11:24:53.578Z,6.67
2022-07-30T11:27:41.457Z,7.10
2022-07-30T11:30:29.102Z,1.90
2022-07-30T11:33:07.209Z,4.27
2022-07-30T11:36:05.761Z,4.77
2022-07-30T11:38:58.969Z,5.00
2022-07-30T11:41:32.851Z,1.50
2022-07-30T11:44:29.131Z,1.27
2022-07-30T11:46:58.187Z,4.93
2022-07-30T11:50:07.754Z,4.67
2022-07-30T11:52:35.062Z,3.03
2022-07-30T11:55:05.623Z,7.30
2022-07-30T11:57:43.079Z,3.53
2022-07-30T12:00:10.601Z,4.17
2022-07-30T12:03:02.450Z,4.07
2022-07-30T12:05:34.589Z,7.03
2022-07-30T12:08:07.221Z,5.33
2022-07-30T12:10:39.904Z,3.07
2022-07-30T12:13:16.573Z,5.50
2022-07-30T12:15:47.416Z,2.77
2022-07-30T12:18:26.751Z,6.60
2022-07-30T12:20:59.362Z,3.20
2022-07-30T12:23:28.377Z,11.70
2022-07-30T12:26:01.109Z,3.37
2022-07-30T12:28:31.188Z,5.30
2022-07-30T12:31:04.644Z,4.40
2022-07-30T12:33:32.453Z,3.60
2022-07-30T12:36:00.986Z,5.97
2022-07-30T12:38:51.389Z,3.60
2022-07-30T12:41:19.708Z,4.00
2022-07-30T12:44:03.909Z,3.50
2022-07-30T12:46:38.504Z,14.70
2022-07-30T12:49:08.226Z,4.50
2022-07-30T12:52:00.105Z,2.40
2022-07-30T12:54:32.512Z,6.77
2022-07-30T12:57:07.748Z,3.60
2022-07-30T12:59:35.954Z,1.73
2022-07-30T13:02:03.738Z,3.83
2022-07-30T13:04:36.087Z,4.87
2022-07-30T13:07:16.189Z,3.47
2022-07-30T13:09:46.076Z,6.00
2022-07-30T13:12:15.671Z,6.53
2022-07-30T13:14:42.613Z,4.43
2022-07-30T13:17:10.904Z,3.90
2022-07-30T13:19:46.087Z,1.97
2022-07-30T13:22:13.825Z,3.10
2022-07-30T13:24:41.096Z,2.97
2022-07-30T13:27:08.953Z,3.17
2022-07-30T13:29:35.800Z,2.23
2022-07-30T13:32:02.931Z,7.33
2022-07-30T13:34:34.807Z,6.60
2022-07-30T13:37:06.161Z,15.47
2022-07-30T13:39:33.133Z,28.03
2022-07-30T13:41:59.937Z,5.50
2022-07-30T13:44:29.080Z,5.77
2022-07-30T13:46:59.996Z,7.33
2022-07-30T13:49:29.806Z,3.40
2022-07-30T13:52:00.159Z,4.37
2022-07-30T13:54:27.330Z,6.77
2022-07-30T13:56:57.307Z,3.83
2022-07-30T13:59:24.200Z,2.20
2022-07-30T14:01:51.600Z,2.03
2022-07-30T14:04:18.997Z,5.07
2022-07-30T14:06:46.249Z,4.13
2022-07-30T14:09:13.954Z,3.47
2022-07-30T14:11:40.950Z,2.90
2022-07-30T14:14:08.049Z,1.97
2022-07-30T14:16:45.045Z,5.40
2022-07-30T14:19:23.661Z,4.33
2022-07-30T14:21:53.259Z,4.27
2022-07-30T14:24:30.847Z,3.10
2022-07-30T14:27:01.434Z,2.37
2022-07-30T14:29:30.352Z,5.00
2022-07-30T14:31:59.170Z,5.27
2022-07-30T14:34:33.714Z,4.87
2022-07-30T14:37:03.538Z,3.77
2022-07-30T14:39:33.693Z,6.87
2022-07-30T14:42:01.198Z,6.93
2022-07-30T14:44:35.232Z,4.23
2022-07-30T14:47:03.432Z,3.30
2022-07-30T14:49:34.327Z,4.33
2022-07-30T14:52:02.955Z,3.87
2022-07-30T14:54:34.269Z,6.47
2022-07-30T14:57:03.473Z,4.43
2022-07-30T14:59:31.324Z,4.47
2022-07-30T15:01:58.749Z,3.77
2022-07-30T15:04:26.153Z,4.43
2022-07-30T15:06:53.213Z,17.03
2022-07-30T15:09:23.722Z,2.00
2022-07-30T15:12:08.902Z,2.13
2022-07-30T15:14:40.412Z,4.37
2022-07-30T15:17:08.711Z,5.23
2022-07-30T15:19:50.048Z,3.33
2022-07-30T15:22:19.931Z,4.40
2022-07-30T15:24:47.672Z,4.67
2022-07-30T15:27:16.994Z,2.67
2022-07-30T15:29:44.945Z,4.60
2022-07-30T15:32:17.703Z,2.83
2022-07-30T15:34:45.499Z,3.27
2022-07-30T15:37:13.753Z,4.50
2022-07-30T15:39:41.256Z,1.50
2022-07-30T15:42:08.547Z,4.60
2022-07-30T15:44:35.589Z,1.60
2022-07-30T15:47:13.130Z,6.17
2022-07-30T15:49:52.205Z,4.00
2022-07-30T15:52:19.334Z,3.57
2022-07-30T15:54:50.075Z,6.90
2022-07-30T15:57:17.316Z,2.67
2022-07-30T15:59:47.429Z,5.23
2022-07-30T16:02:23.924Z,3.53
2022-07-30T16:05:51.509Z,4.73
2022-07-30T16:08:07.005Z,2.40
2022-07-30T16:10:49.413Z,4.63
2022-07-30T16:13:29.576Z,4.00
2022-07-30T16:15:57.040Z,2.23
2022-07-30T16:18:38.664Z,3.93
2022-07-30T16:21:20.432Z,3.33
2022-07-30T16:24:01.041Z,1.80
2022-07-30T16:26:38.470Z,2.07
2022-07-30T16:29:16.846Z,1.87
2022-07-30T16:31:44.726Z,3.63
2022-07-30T16:34:23.096Z,5.70
2022-07-30T16:36:58.668Z,9.07
2022-07-30T16:39:26.508Z,2.37
2022-07-30T16:41:54.114Z,3.73
2022-07-30T16:44:21.826Z,3.93
2022-07-30T16:46:52.197Z,1.20
2022-07-30T16:49:19.686Z,5.23
2022-07-30T16:51:50.111Z,3.97
2022-07-30T16:54:20.148Z,2.03
2022-07-30T16:57:00.901Z,2.60
2022-07-30T16:59:38.078Z,3.80
2022-07-30T17:02:05.281Z,1.33
2022-07-30T17:04:34.828Z,2.43
2022-07-30T17:07:01.850Z,1.73
2022-07-30T17:09:31.918Z,2.73
2022-07-30T17:12:09.629Z,2.83
2022-07-30T17:14:42.518Z,2.93
2022-07-30T17:17:14.891Z,2.30
2022-07-30T17:19:43.272Z,2.60
2022-07-30T17:22:11.284Z,3.50
2022-07-30T17:24:40.705Z,1.93
2022-07-30T17:27:15.755Z,2.70
2022-07-30T17:29:51.997Z,1.23
2022-07-30T17:32:24.060Z,3.57
2022-07-30T17:34:51.781Z,1.43
2022-07-30T17:37:19.141Z,1.50
2022-07-30T17:40:28.416Z,2.80
2022-07-30T17:42:35.799Z,3.33
2022-07-30T17:45:07.772Z,3.03
2022-07-30T17:47:49.315Z,5.20
2022-07-30T17:50:17.597Z,2.70
2022-07-30T17:52:45.030Z,4.03
2022-07-30T17:55:14.243Z,2.47
2022-07-30T17:57:41.973Z,2.70
2022-07-30T18:00:10.345Z,3.43
2022-07-30T18:02:37.517Z,2.83
2022-07-30T18:05:12.283Z,6.47
2022-07-30T18:07:39.189Z,3.30
2022-07-30T18:10:08.069Z,4.43
2022-07-30T18:12:38.309Z,4.83
2022-07-30T18:15:06.720Z,1.97
2022-07-30T18:17:33.511Z,2.17
2022-07-30T18:20:03.282Z,3.67
2022-07-30T18:22:32.090Z,1.67
2022-07-30T18:25:01.245Z,1.80
2022-07-30T18:27:28.138Z,1.57
2022-07-30T18:29:55.225Z,12.43
2022-07-30T18:32:23.567Z,3.33
2022-07-30T18:34:52.794Z,3.10
2022-07-30T18:37:19.649Z,3.10
2022-07-30T18:39:46.462Z,2.97
2022-07-30T18:42:13.573Z,1.20
2022-07-30T18:44:40.327Z,1.77
2022-07-30T18:47:07.226Z,3.77
2022-07-30T18:49:37.022Z,4.13
2022-07-30T18:52:05.235Z,2.67
2022-07-30T18:54:32.262Z,4.87
2022-07-30T18:56:59.174Z,3.87
2022-07-30T18:59:28.524Z,2.17
2022-07-30T19:01:55.525Z,4.77
2022-07-30T19:04:24.117Z,4.40
2022-07-30T19:06:52.484Z,2.60
2022-07-30T19:09:19.881Z,4.17
2022-07-30T19:11:49.225Z,3.63
2022-07-30T19:14:17.250Z,2.40
2022-07-30T19:16:44.589Z,2.67
2022-07-30T19:19:14.945Z,3.30
2022-07-30T19:21:42.054Z,3.43
2022-07-30T19:24:10.093Z,3.90
2022-07-30T19:26:39.823Z,3.80
2022-07-30T19:29:10.465Z,2.87
2022-07-30T19:31:37.342Z,3.60
2022-07-30T19:34:10.779Z,3.30
2022-07-30T19:36:38.105Z,2.47
2022-07-30T19:39:07.435Z,1.87
2022-07-30T19:41:40.779Z,6.13
2022-07-30T19:44:09.094Z,2.73
2022-07-30T19:46:36.603Z,3.40
2022-07-30T19:49:04.026Z,3.27
2022-07-30T19:52:07.258Z,5.20
2022-07-30T19:54:20.345Z,3.37
2022-07-30T19:56:48.491Z,2.33
2022-07-30T19:59:15.635Z,4.63
2022-07-30T20:01:43.020Z,3.07
2022-07-30T20:04:11.154Z,2.40
2022-07-30T20:06:41.110Z,7.37
2022-07-30T20:09:15.101Z,3.20
2022-07-30T20:11:43.672Z,5.60
2022-07-30T20:14:10.505Z,5.70
2022-07-30T20:16:39.918Z,5.97
2022-07-30T20:19:10.377Z,3.10
2022-07-30T20:21:56.111Z,3.57
2022-07-30T20:24:27.533Z,3.27
2022-07-30T20:26:56.347Z,2.13
2022-07-30T20:29:23.216Z,7.30
2022-07-30T20:31:51.266Z,3.33
2022-07-30T20:34:26.026Z,4.20
2022-07-30T20:36:56.404Z,3.60
2022-07-30T20:39:26.250Z,3.20
2022-07-30T20:42:07.789Z,2.53
2022-07-30T20:44:36.565Z,3.60
2022-07-30T20:47:08.332Z,3.90
2022-07-30T20:49:35.967Z,2.57
2022-07-30T20:52:03.585Z,3.80
2022-07-30T20:54:32.430Z,3.03
2022-07-30T20:57:00.065Z,7.80
2022-07-30T20:59:27.537Z,3.90
2022-07-30T21:01:55.754Z,5.30
2022-07-30T21:04:25.446Z,5.93
2022-07-30T21:06:53.026Z,4.77
2022-07-30T21:09:22.944Z,6.20
2022-07-30T21:11:54.389Z,3.37
2022-07-30T21:14:21.966Z,4.37
2022-07-30T21:16:56.008Z,7.50
2022-07-30T21:19:23.677Z,6.77
2022-07-30T21:21:53.348Z,3.33
2022-07-30T21:24:22.493Z,5.57
2022-07-30T21:26:54.790Z,2.20
2022-07-30T21:29:22.669Z,7.47
2022-07-30T21:32:01.335Z,3.53
2022-07-30T21:34:35.976Z,2.20
2022-07-30T21:37:15.521Z,4.80
2022-07-30T21:39:43.188Z,2.13
2022-07-30T21:42:09.925Z,2.87
2022-07-30T21:44:37.684Z,3.70
2022-07-30T21:47:10.483Z,4.70
2022-07-30T21:49:39.856Z,6.90
2022-07-30T21:52:09.076Z,2.17
2022-07-30T21:57:34.473Z,6.00
2022-07-30T22:00:07.176Z,3.97
2022-07-30T22:02:38.327Z,3.00
2022-07-30T22:05:20.145Z,2.60
2022-07-30T22:07:48.824Z,2.50
2022-07-30T22:10:15.748Z,2.07
2022-07-30T22:12:48.772Z,2.30
2022-07-30T22:15:15.615Z,2.97
2022-07-30T22:17:58.639Z,8.17
2022-07-30T22:20:32.031Z,6.43
2022-07-30T22:23:01.765Z,10.33
2022-07-30T22:25:41.586Z,4.43
2022-07-30T22:28:14.338Z,5.73
2022-07-30T22:30:48.663Z,4.27
2022-07-30T22:33:19.753Z,2.90
2022-07-30T22:35:49.659Z,4.67
2022-07-30T22:38:17.385Z,7.73
2022-07-30T22:40:46.634Z,1.30
2022-07-30T22:43:15.988Z,3.27
2022-07-30T22:45:48.594Z,8.53
2022-07-30T22:48:16.777Z,2.77
2022-07-30T22:50:43.481Z,2.50
2022-07-30T22:53:23.757Z,5.47
2022-07-30T22:55:58.758Z,2.33
2022-07-30T22:58:26.638Z,4.47
2022-07-30T23:00:53.809Z,1.97
2022-07-30T23:03:21.224Z,1.67
2022-07-30T23:05:55.825Z,3.23
2022-07-30T23:08:29.715Z,1.27
2022-07-30T23:10:59.572Z,2.17
2022-07-30T23:12:31.225Z,8.40
2022-07-30T23:13:27.413Z,2.83
2022-07-30T23:15:54.216Z,1.40
2022-07-30T23:18:20.991Z,2.67
2022-07-30T23:20:47.776Z,1.20
2022-07-30T23:23:15.089Z,1.77
2022-07-30T23:25:41.857Z,1.77
2022-07-30T23:28:08.638Z,2.53
2022-07-30T23:30:35.875Z,2.07
2022-07-30T23:33:02.841Z,2.67
2022-07-30T23:35:30.308Z,2.93
2022-07-30T23:37:57.384Z,2.83
2022-07-30T23:40:24.161Z,2.27
2022-07-30T23:42:51.875Z,4.03
2022-07-30T23:45:18.985Z,1.07
2022-07-30T23:48:01.994Z,4.13
2022-07-30T23:50:31.184Z,4.13
2022-07-30T23:52:57.865Z,3.67
2022-07-30T23:55:24.698Z,2.00
2022-07-30T23:57:51.657Z,4.30
